Portada
METAR-TAF:

METAR-TAF

Aeroports :

Al-Kuwait, Kuwait

latitud: 29-13N, longitud: 047-59E, altitud: 55 m

Observació

L'informe es va fer fa 59 minuts, a les 06:00 UTC
Vent 9 kt del Nord/Nord-Oest
Temperatura 9°C
Humitat 57%
Pressió 1027 hPa
Visibilitat 10 km o més
sense núvols per sota de 1500 mi sense presència de cumulonimbus.

METAR: OKBK 200600Z 34009KT CAVOK 09/01 Q1027 NOSIG

Hora: 09:59 (06:59 UTC)

Pronòstic

L'informe es va fer fa 2 hores i 14 minuts, a les 04:45 UTC
Pronòstic vàlid del 20 a les 06 UTC al 21 a les 12 UTC
Vent 10 kt del Nord/Nord-Oest
Visibilitat: 7000 m
Temporalment
l' 20 a les 06 UTC al 20 a les 10 UTC
Vent 3 kt amb direcció variable
Visibilitat: 4000 m
calitja

TAF: OKBK 200445Z 2006/2112 34010KT 7000 NSC TEMPO 2006/2010 VRB03KT 4000 HZ

Observacions i pronòstics meteorològics de més de 4000 aeroports (METAR i TAF).

Les estacions disponibles són els punts grocs i vermells al mapa.

Posi el ratolí al punt desitjat per veure el nom de l'estació.

Feu clic per veure les observacions i els pronòstics meteorològics.

Per canviar el mapa: feu clic els botons verds amb una creu de color negre per apropar; al botó verd amb un guió per allunyar la imatge; o en les fletxes verdes per a mapes adjacents.


METAR-TAF: